sensor_id;sensor_type;location;lat;lon;timestamp;pressure;altitude;pressure_sealevel;temperature;humidity
81354;BME280;70810;52.038;8.524;2024-02-14T00:01:26;100268.75;;;6.41;77.77
81354;BME280;70810;52.038;8.524;2024-02-14T00:03:54;100263.59;;;6.37;78.16
81354;BME280;70810;52.038;8.524;2024-02-14T00:06:23;100262.69;;;6.36;78.61
81354;BME280;70810;52.038;8.524;2024-02-14T00:08:51;100256.41;;;6.39;77.80
81354;BME280;70810;52.038;8.524;2024-02-14T00:11:20;100250.19;;;6.38;78.60
81354;BME280;70810;52.038;8.524;2024-02-14T00:13:50;100235.09;;;6.39;78.04
81354;BME280;70810;52.038;8.524;2024-02-14T00:16:17;100252.50;;;6.50;77.46
81354;BME280;70810;52.038;8.524;2024-02-14T00:18:46;100239.94;;;6.54;77.75
81354;BME280;70810;52.038;8.524;2024-02-14T00:21:13;100236.28;;;6.57;77.66
81354;BME280;70810;52.038;8.524;2024-02-14T00:23:44;100238.81;;;6.61;77.00
81354;BME280;70810;52.038;8.524;2024-02-14T00:26:11;100240.34;;;6.68;77.11
81354;BME280;70810;52.038;8.524;2024-02-14T00:28:38;100238.56;;;6.69;76.63
81354;BME280;70810;52.038;8.524;2024-02-14T00:31:06;100225.19;;;6.70;76.85
81354;BME280;70810;52.038;8.524;2024-02-14T00:33:32;100239.09;;;6.79;76.65
81354;BME280;70810;52.038;8.524;2024-02-14T00:35:59;100240.81;;;6.81;76.93
81354;BME280;70810;52.038;8.524;2024-02-14T00:38:26;100219.69;;;6.75;76.45
81354;BME280;70810;52.038;8.524;2024-02-14T00:40:56;100240.66;;;6.86;76.04
81354;BME280;70810;52.038;8.524;2024-02-14T00:43:24;100223.91;;;6.82;76.30
81354;BME280;70810;52.038;8.524;2024-02-14T00:45:51;100221.81;;;6.90;75.78
81354;BME280;70810;52.038;8.524;2024-02-14T00:48:19;100206.25;;;6.78;75.67
81354;BME280;70810;52.038;8.524;2024-02-14T00:50:47;100189.53;;;6.73;76.26
81354;BME280;70810;52.038;8.524;2024-02-14T00:53:14;100211.19;;;6.89;76.31
81354;BME280;70810;52.038;8.524;2024-02-14T00:55:42;100198.09;;;6.83;76.08
81354;BME280;70810;52.038;8.524;2024-02-14T00:58:10;100204.66;;;6.99;75.73
81354;BME280;70810;52.038;8.524;2024-02-14T01:00:37;100197.66;;;6.95;75.44
81354;BME280;70810;52.038;8.524;2024-02-14T01:03:06;100198.53;;;6.96;75.73
81354;BME280;70810;52.038;8.524;2024-02-14T01:05:34;100192.06;;;7.03;76.09
81354;BME280;70810;52.038;8.524;2024-02-14T01:08:03;100186.94;;;6.97;75.72
81354;BME280;70810;52.038;8.524;2024-02-14T01:10:30;100200.88;;;7.05;75.68
81354;BME280;70810;52.038;8.524;2024-02-14T01:12:57;100191.94;;;7.06;75.90
81354;BME280;70810;52.038;8.524;2024-02-14T01:15:25;100186.91;;;6.98;75.94
81354;BME280;70810;52.038;8.524;2024-02-14T01:17:52;100180.47;;;7.04;75.73
81354;BME280;70810;52.038;8.524;2024-02-14T01:20:21;100181.34;;;7.04;75.82
81354;BME280;70810;52.038;8.524;2024-02-14T01:22:50;100175.47;;;6.95;76.17
81354;BME280;70810;52.038;8.524;2024-02-14T01:25:16;100188.41;;;7.05;76.38
81354;BME280;70810;52.038;8.524;2024-02-14T01:27:45;100182.47;;;6.97;77.05
81354;BME280;70810;52.038;8.524;2024-02-14T01:30:12;100172.84;;;6.93;77.91
81354;BME280;70810;52.038;8.524;2024-02-14T01:32:40;100177.25;;;6.94;79.13
81354;BME280;70810;52.038;8.524;2024-02-14T01:35:07;100175.56;;;6.91;79.45
81354;BME280;70810;52.038;8.524;2024-02-14T01:37:35;100173.16;;;6.84;80.55
81354;BME280;70810;52.038;8.524;2024-02-14T01:40:12;100166.09;;;6.83;80.71
81354;BME280;70810;52.038;8.524;2024-02-14T01:42:40;100160.16;;;6.75;81.00
81354;BME280;70810;52.038;8.524;2024-02-14T01:45:09;100151.56;;;6.66;82.29
81354;BME280;70810;52.038;8.524;2024-02-14T01:47:40;100150.03;;;6.59;83.39
81354;BME280;70810;52.038;8.524;2024-02-14T01:50:09;100150.94;;;6.58;84.10
81354;BME280;70810;52.038;8.524;2024-02-14T01:52:37;100154.66;;;6.54;84.59
81354;BME280;70810;52.038;8.524;2024-02-14T01:55:07;100154.81;;;6.49;85.74
81354;BME280;70810;52.038;8.524;2024-02-14T01:57:34;100130.31;;;6.38;87.20
81354;BME280;70810;52.038;8.524;2024-02-14T02:00:03;100140.63;;;6.49;86.89
81354;BME280;70810;52.038;8.524;2024-02-14T02:02:35;100142.66;;;6.41;87.96
81354;BME280;70810;52.038;8.524;2024-02-14T02:05:07;100138.25;;;6.40;88.03
81354;BME280;70810;52.038;8.524;2024-02-14T02:07:34;100131.06;;;6.43;87.80
81354;BME280;70810;52.038;8.524;2024-02-14T02:10:01;100132.72;;;6.46;87.30
81354;BME280;70810;52.038;8.524;2024-02-14T02:12:31;100131.50;;;6.56;87.36
81354;BME280;70810;52.038;8.524;2024-02-14T02:14:58;100138.28;;;6.65;86.31
81354;BME280;70810;52.038;8.524;2024-02-14T02:17:24;100130.53;;;6.59;86.75
81354;BME280;70810;52.038;8.524;2024-02-14T02:19:53;100109.88;;;6.39;86.65
81354;BME280;70810;52.038;8.524;2024-02-14T02:22:22;100120.16;;;6.49;86.61
81354;BME280;70810;52.038;8.524;2024-02-14T02:24:52;100121.81;;;6.53;87.10
81354;BME280;70810;52.038;8.524;2024-02-14T02:27:19;100125.25;;;6.57;86.77
81354;BME280;70810;52.038;8.524;2024-02-14T02:29:46;100115.19;;;6.65;86.53
81354;BME280;70810;52.038;8.524;2024-02-14T02:32:13;100124.00;;;6.67;86.78
81354;BME280;70810;52.038;8.524;2024-02-14T02:34:43;100115.28;;;6.62;86.32
81354;BME280;70810;52.038;8.524;2024-02-14T02:37:14;100115.81;;;6.72;86.05
81354;BME280;70810;52.038;8.524;2024-02-14T02:39:42;100115.06;;;6.68;86.44
81354;BME280;70810;52.038;8.524;2024-02-14T02:42:11;100112.13;;;6.76;85.53
81354;BME280;70810;52.038;8.524;2024-02-14T02:44:39;100120.63;;;6.87;85.31
81354;BME280;70810;52.038;8.524;2024-02-14T02:47:07;100117.88;;;6.89;85.03
81354;BME280;70810;52.038;8.524;2024-02-14T02:49:37;100109.06;;;6.87;85.40
81354;BME280;70810;52.038;8.524;2024-02-14T02:52:04;100103.94;;;6.82;84.90
81354;BME280;70810;52.038;8.524;2024-02-14T02:54:36;100103.56;;;6.91;85.56
81354;BME280;70810;52.038;8.524;2024-02-14T02:57:07;100098.34;;;6.88;85.32
81354;BME280;70810;52.038;8.524;2024-02-14T02:59:37;100101.56;;;6.98;85.12
81354;BME280;70810;52.038;8.524;2024-02-14T03:02:07;100109.63;;;6.97;85.21
81354;BME280;70810;52.038;8.524;2024-02-14T03:04:38;100102.47;;;6.97;85.45
81354;BME280;70810;52.038;8.524;2024-02-14T03:07:07;100102.41;;;6.99;85.50
81354;BME280;70810;52.038;8.524;2024-02-14T03:09:35;100103.41;;;6.96;85.31
81354;BME280;70810;52.038;8.524;2024-02-14T03:12:03;100099.75;;;6.99;86.08
81354;BME280;70810;52.038;8.524;2024-02-14T03:14:30;100096.13;;;7.01;85.78
81354;BME280;70810;52.038;8.524;2024-02-14T03:17:00;100087.84;;;6.84;85.96
81354;BME280;70810;52.038;8.524;2024-02-14T03:19:28;100091.16;;;6.90;86.16
81354;BME280;70810;52.038;8.524;2024-02-14T03:21:55;100097.13;;;6.97;86.04
81354;BME280;70810;52.038;8.524;2024-02-14T03:24:22;100098.13;;;6.95;86.26
81354;BME280;70810;52.038;8.524;2024-02-14T03:26:53;100086.72;;;6.91;86.17
81354;BME280;70810;52.038;8.524;2024-02-14T03:29:21;100103.06;;;7.05;85.96
81354;BME280;70810;52.038;8.524;2024-02-14T03:31:51;100104.81;;;7.06;85.44
81354;BME280;70810;52.038;8.524;2024-02-14T03:34:24;100104.72;;;7.09;85.67
81354;BME280;70810;52.038;8.524;2024-02-14T03:36:53;100097.25;;;7.18;85.46
81354;BME280;70810;52.038;8.524;2024-02-14T03:39:22;100079.75;;;7.10;85.60
81354;BME280;70810;52.038;8.524;2024-02-14T03:41:51;100103.81;;;7.09;86.17
81354;BME280;70810;52.038;8.524;2024-02-14T03:44:21;100068.69;;;6.98;86.03
81354;BME280;70810;52.038;8.524;2024-02-14T03:46:48;100108.19;;;7.12;86.91
81354;BME280;70810;52.038;8.524;2024-02-14T03:49:15;100109.97;;;7.11;87.58
81354;BME280;70810;52.038;8.524;2024-02-14T03:51:51;100097.91;;;7.01;88.65
81354;BME280;70810;52.038;8.524;2024-02-14T03:54:21;100092.41;;;7.05;88.41
81354;BME280;70810;52.038;8.524;2024-02-14T03:56:50;100099.38;;;7.09;88.27
81354;BME280;70810;52.038;8.524;2024-02-14T03:59:22;100104.63;;;7.11;88.42
81354;BME280;70810;52.038;8.524;2024-02-14T04:01:51;100083.66;;;7.02;88.43
81354;BME280;70810;52.038;8.524;2024-02-14T04:04:18;100088.06;;;7.03;88.73
81354;BME280;70810;52.038;8.524;2024-02-14T04:06:49;100103.81;;;7.09;88.90
81354;BME280;70810;52.038;8.524;2024-02-14T04:09:16;100095.91;;;7.06;89.02
81354;BME280;70810;52.038;8.524;2024-02-14T04:11:43;100095.75;;;7.10;89.23
81354;BME280;70810;52.038;8.524;2024-02-14T04:14:10;100098.22;;;7.17;89.63
81354;BME280;70810;52.038;8.524;2024-02-14T04:16:38;100099.88;;;7.19;89.24
81354;BME280;70810;52.038;8.524;2024-02-14T04:19:05;100093.16;;;7.09;90.13
81354;BME280;70810;52.038;8.524;2024-02-14T04:21:32;100104.72;;;7.09;90.88
81354;BME280;70810;52.038;8.524;2024-02-14T04:24:05;100093.34;;;7.04;91.34
81354;BME280;70810;52.038;8.524;2024-02-14T04:26:34;100092.50;;;7.02;91.37
81354;BME280;70810;52.038;8.524;2024-02-14T04:29:01;100089.78;;;7.04;91.17
81354;BME280;70810;52.038;8.524;2024-02-14T04:31:28;100072.06;;;7.03;91.37
81354;BME280;70810;52.038;8.524;2024-02-14T04:33:58;100090.22;;;7.17;91.45
81354;BME280;70810;52.038;8.524;2024-02-14T04:36:26;100091.88;;;7.19;91.92
81354;BME280;70810;52.038;8.524;2024-02-14T04:38:58;100081.16;;;7.21;92.32
81354;BME280;70810;52.038;8.524;2024-02-14T04:41:26;100084.75;;;7.20;91.57
81354;BME280;70810;52.038;8.524;2024-02-14T04:43:54;100075.16;;;7.14;91.66
81354;BME280;70810;52.038;8.524;2024-02-14T04:46:20;100086.25;;;7.27;91.37
81354;BME280;70810;52.038;8.524;2024-02-14T04:48:49;100085.25;;;7.29;91.26
81354;BME280;70810;52.038;8.524;2024-02-14T04:51:25;100086.72;;;7.38;91.42
81354;BME280;70810;52.038;8.524;2024-02-14T04:53:53;100084.91;;;7.39;91.47
81354;BME280;70810;52.038;8.524;2024-02-14T04:56:24;100082.53;;;7.31;91.70
81354;BME280;70810;52.038;8.524;2024-02-14T04:58:54;100085.78;;;7.39;91.51
81354;BME280;70810;52.038;8.524;2024-02-14T05:01:21;100078.72;;;7.38;92.13
81354;BME280;70810;52.038;8.524;2024-02-14T05:03:48;100043.75;;;7.22;91.63
81354;BME280;70810;52.038;8.524;2024-02-14T05:06:17;100083.06;;;7.41;91.95
81354;BME280;70810;52.038;8.524;2024-02-14T05:08:49;100085.94;;;7.35;92.79
81354;BME280;70810;52.038;8.524;2024-02-14T05:11:18;100082.88;;;7.45;93.48
81354;BME280;70810;52.038;8.524;2024-02-14T05:13:48;100082.00;;;7.45;92.50
81354;BME280;70810;52.038;8.524;2024-02-14T05:16:19;100089.13;;;7.44;93.47
81354;BME280;70810;52.038;8.524;2024-02-14T05:18:46;100088.81;;;7.30;94.40
81354;BME280;70810;52.038;8.524;2024-02-14T05:21:21;100083.38;;;7.33;94.86
81354;BME280;70810;52.038;8.524;2024-02-14T05:23:48;100087.44;;;7.20;95.67
81354;BME280;70810;52.038;8.524;2024-02-14T05:26:15;100087.44;;;7.20;96.64
81354;BME280;70810;52.038;8.524;2024-02-14T05:28:45;100081.50;;;7.12;97.39
81354;BME280;70810;52.038;8.524;2024-02-14T05:31:15;100082.44;;;7.10;98.10
81354;BME280;70810;52.038;8.524;2024-02-14T05:33:44;100095.00;;;7.07;98.62
81354;BME280;70810;52.038;8.524;2024-02-14T05:36:12;100078.94;;;7.08;98.79
81354;BME280;70810;52.038;8.524;2024-02-14T05:38:40;100100.19;;;7.12;98.82
81354;BME280;70810;52.038;8.524;2024-02-14T05:41:07;100099.06;;;7.17;99.03
81354;BME280;70810;52.038;8.524;2024-02-14T05:43:34;100096.56;;;7.13;99.07
81354;BME280;70810;52.038;8.524;2024-02-14T05:46:01;100089.47;;;7.13;99.17
81354;BME280;70810;52.038;8.524;2024-02-14T05:48:27;100093.78;;;7.16;99.74
81354;BME280;70810;52.038;8.524;2024-02-14T05:50:55;100101.84;;;7.14;99.61
81354;BME280;70810;52.038;8.524;2024-02-14T05:53:22;100104.72;;;7.09;100.00
81354;BME280;70810;52.038;8.524;2024-02-14T05:55:49;100090.44;;;7.10;100.00
81354;BME280;70810;52.038;8.524;2024-02-14T05:58:16;100108.88;;;7.17;100.00
81354;BME280;70810;52.038;8.524;2024-02-14T06:00:43;100092.81;;;7.18;100.00
81354;BME280;70810;52.038;8.524;2024-02-14T06:03:12;100100.88;;;7.17;100.00
81354;BME280;70810;52.038;8.524;2024-02-14T06:05:39;100106.44;;;7.10;100.00
81354;BME280;70810;52.038;8.524;2024-02-14T06:08:07;100100.06;;;7.15;100.00
81354;BME280;70810;52.038;8.524;2024-02-14T06:10:35;100108.47;;;7.27;100.00
81354;BME280;70810;52.038;8.524;2024-02-14T06:13:04;100091.75;;;7.22;100.00
81354;BME280;70810;52.038;8.524;2024-02-14T06:15:31;100105.16;;;7.21;100.00
81354;BME280;70810;52.038;8.524;2024-02-14T06:17:57;100110.22;;;7.28;100.00
81354;BME280;70810;52.038;8.524;2024-02-14T06:20:39;100110.28;;;7.27;100.00
81354;BME280;70810;52.038;8.524;2024-02-14T06:23:40;100106.59;;;7.29;100.00
81354;BME280;70810;52.038;8.524;2024-02-14T06:26:07;100114.16;;;7.42;100.00
81354;BME280;70810;52.038;8.524;2024-02-14T06:28:34;100114.44;;;7.34;100.00
81354;BME280;70810;52.038;8.524;2024-02-14T06:31:01;100114.31;;;7.37;100.00
81354;BME280;70810;52.038;8.524;2024-02-14T06:33:30;100104.41;;;7.41;100.00
81354;BME280;70810;52.038;8.524;2024-02-14T06:35:57;100112.53;;;7.38;100.00
81354;BME280;70810;52.038;8.524;2024-02-14T06:38:24;100129.84;;;7.50;100.00
81354;BME280;70810;52.038;8.524;2024-02-14T06:40:52;100137.97;;;7.46;100.00
81354;BME280;70810;52.038;8.524;2024-02-14T06:43:19;100130.13;;;7.43;100.00
81354;BME280;70810;52.038;8.524;2024-02-14T06:45:46;100134.13;;;7.55;100.00
81354;BME280;70810;52.038;8.524;2024-02-14T06:51:23;100111.72;;;7.36;100.00
81354;BME280;70810;52.038;8.524;2024-02-14T06:53:59;100146.72;;;7.50;100.00
81354;BME280;70810;52.038;8.524;2024-02-14T07:06:04;100148.63;;;7.70;100.00
81354;BME280;70810;52.038;8.524;2024-02-14T07:08:31;100152.19;;;7.71;100.00
81354;BME280;70810;52.038;8.524;2024-02-14T07:10:58;100161.94;;;7.72;100.00
81354;BME280;70810;52.038;8.524;2024-02-14T07:13:35;100171.63;;;7.74;100.00
81354;BME280;70810;52.038;8.524;2024-02-14T07:16:15;100159.16;;;7.75;100.00
81354;BME280;70810;52.038;8.524;2024-02-14T07:18:46;100173.81;;;7.87;100.00
81354;BME280;70810;52.038;8.524;2024-02-14T07:21:14;100175.00;;;7.79;100.00
81354;BME280;70810;52.038;8.524;2024-02-14T07:23:44;100168.75;;;7.79;100.00
81354;BME280;70810;52.038;8.524;2024-02-14T07:26:10;100171.59;;;7.76;100.00
81354;BME280;70810;52.038;8.524;2024-02-14T07:28:37;100176.59;;;7.83;100.00
81354;BME280;70810;52.038;8.524;2024-02-14T07:31:05;100171.94;;;7.89;100.00
81354;BME280;70810;52.038;8.524;2024-02-14T07:33:33;100196.63;;;7.95;100.00
81354;BME280;70810;52.038;8.524;2024-02-14T07:35:59;100189.34;;;7.99;100.00
81354;BME280;70810;52.038;8.524;2024-02-14T07:38:28;100185.75;;;8.00;99.15
81354;BME280;70810;52.038;8.524;2024-02-14T07:40:54;100186.00;;;7.94;99.56
81354;BME280;70810;52.038;8.524;2024-02-14T07:43:21;100172.53;;;7.97;99.73
81354;BME280;70810;52.038;8.524;2024-02-14T07:45:48;100195.66;;;7.98;99.31
81354;BME280;70810;52.038;8.524;2024-02-14T07:48:15;100204.97;;;8.10;98.66
81354;BME280;70810;52.038;8.524;2024-02-14T07:50:42;100190.16;;;8.01;99.22
81354;BME280;70810;52.038;8.524;2024-02-14T07:53:09;100200.59;;;8.07;99.21
81354;BME280;70810;52.038;8.524;2024-02-14T07:55:37;100206.81;;;8.08;99.80
81354;BME280;70810;52.038;8.524;2024-02-14T07:58:04;100213.72;;;8.13;99.16
81354;BME280;70810;52.038;8.524;2024-02-14T08:00:31;100215.84;;;8.05;99.69
81354;BME280;70810;52.038;8.524;2024-02-14T08:02:58;100200.84;;;8.01;99.86
81354;BME280;70810;52.038;8.524;2024-02-14T08:05:25;100215.28;;;8.19;99.75
81354;BME280;70810;52.038;8.524;2024-02-14T08:07:52;100227.09;;;8.13;99.66
81354;BME280;70810;52.038;8.524;2024-02-14T08:10:22;100213.69;;;8.15;99.64
81354;BME280;70810;52.038;8.524;2024-02-14T08:12:50;100210.50;;;8.27;99.13
81354;BME280;70810;52.038;8.524;2024-02-14T08:21:31;100218.13;;;8.36;99.34
81354;BME280;70810;52.038;8.524;2024-02-14T08:23:58;100218.97;;;8.38;98.12
81354;BME280;70810;52.038;8.524;2024-02-14T08:26:27;100201.75;;;8.24;99.01
81354;BME280;70810;52.038;8.524;2024-02-14T08:32:23;100194.28;;;8.32;98.35
81354;BME280;70810;52.038;8.524;2024-02-14T08:34:52;100218.06;;;8.38;99.08
81354;BME280;70810;52.038;8.524;2024-02-14T08:37:19;100214.25;;;8.45;98.16
81354;BME280;70810;52.038;8.524;2024-02-14T08:39:48;100217.63;;;8.50;98.81
81354;BME280;70810;52.038;8.524;2024-02-14T08:42:30;100216.91;;;8.45;99.63
81354;BME280;70810;52.038;8.524;2024-02-14T08:45:02;100222.09;;;8.50;99.43
81354;BME280;70810;52.038;8.524;2024-02-14T08:47:33;100214.81;;;8.53;98.92
81354;BME280;70810;52.038;8.524;2024-02-14T08:50:00;100216.84;;;8.47;98.29
81354;BME280;70810;52.038;8.524;2024-02-14T08:52:28;100213.53;;;8.62;99.05
81354;BME280;70810;52.038;8.524;2024-02-14T08:54:55;100226.72;;;8.67;98.20
81354;BME280;70810;52.038;8.524;2024-02-14T08:57:22;100225.69;;;8.71;97.96
81354;BME280;70810;52.038;8.524;2024-02-14T08:59:49;100230.56;;;8.82;98.72
81354;BME280;70810;52.038;8.524;2024-02-14T09:02:16;100228.16;;;8.96;97.52
81354;BME280;70810;52.038;8.524;2024-02-14T09:05:10;100226.03;;;9.04;97.38
81354;BME280;70810;52.038;8.524;2024-02-14T09:08:01;100231.31;;;8.85;97.44
81354;BME280;70810;52.038;8.524;2024-02-14T09:10:29;100229.97;;;8.75;97.93
81354;BME280;70810;52.038;8.524;2024-02-14T09:12:58;100225.34;;;8.78;99.01
81354;BME280;70810;52.038;8.524;2024-02-14T09:15:26;100226.31;;;8.77;99.11
81354;BME280;70810;52.038;8.524;2024-02-14T09:17:53;100230.88;;;8.74;98.31
81354;BME280;70810;52.038;8.524;2024-02-14T09:20:24;100224.25;;;8.84;98.91
81354;BME280;70810;52.038;8.524;2024-02-14T09:22:51;100219.94;;;9.01;97.38
81354;BME280;70810;52.038;8.524;2024-02-14T09:25:18;100226.03;;;9.04;97.32
81354;BME280;70810;52.038;8.524;2024-02-14T09:27:45;100227.00;;;9.03;96.75
81354;BME280;70810;52.038;8.524;2024-02-14T09:30:13;100229.97;;;9.16;96.63
81354;BME280;70810;52.038;8.524;2024-02-14T09:32:40;100230.66;;;9.21;96.31
81354;BME280;70810;52.038;8.524;2024-02-14T09:35:07;100230.72;;;9.20;96.40
81354;BME280;70810;52.038;8.524;2024-02-14T09:37:35;100220.59;;;9.26;96.35
81354;BME280;70810;52.038;8.524;2024-02-14T09:40:04;100234.94;;;9.25;95.92
81354;BME280;70810;52.038;8.524;2024-02-14T09:42:38;100242.03;;;9.26;97.33
81354;BME280;70810;52.038;8.524;2024-02-14T09:45:08;100234.28;;;9.20;96.11
81354;BME280;70810;52.038;8.524;2024-02-14T09:47:37;100235.22;;;9.19;97.23
81354;BME280;70810;52.038;8.524;2024-02-14T09:50:07;100220.47;;;9.29;97.67
81354;BME280;70810;52.038;8.524;2024-02-14T09:52:38;100238.81;;;9.39;96.94
81354;BME280;70810;52.038;8.524;2024-02-14T09:55:10;100248.44;;;9.43;96.21
81354;BME280;70810;52.038;8.524;2024-02-14T09:57:43;100247.59;;;9.42;96.59
81354;BME280;70810;52.038;8.524;2024-02-14T10:00:14;100241.06;;;9.48;96.44
81354;BME280;70810;52.038;8.524;2024-02-14T10:02:41;100247.47;;;9.45;95.91
81354;BME280;70810;52.038;8.524;2024-02-14T10:05:11;100243.75;;;9.48;95.26
81354;BME280;70810;52.038;8.524;2024-02-14T10:07:56;100246.31;;;9.51;95.42
81354;BME280;70810;52.038;8.524;2024-02-14T10:10:23;100259.63;;;9.52;95.67
81354;BME280;70810;52.038;8.524;2024-02-14T10:12:54;100254.94;;;9.58;96.49
81354;BME280;70810;52.038;8.524;2024-02-14T10:15:21;100264.34;;;9.66;95.78
81354;BME280;70810;52.038;8.524;2024-02-14T10:17:48;100264.00;;;9.74;94.58
81354;BME280;70810;52.038;8.524;2024-02-14T10:20:17;100254.81;;;9.80;94.86
81354;BME280;70810;52.038;8.524;2024-02-14T10:22:50;100263.06;;;9.75;94.84
81354;BME280;70810;52.038;8.524;2024-02-14T10:25:18;100254.09;;;9.76;93.90
81354;BME280;70810;52.038;8.524;2024-02-14T10:27:45;100248.66;;;9.78;93.57
81354;BME280;70810;52.038;8.524;2024-02-14T10:30:16;100277.31;;;9.96;94.21
81354;BME280;70810;52.038;8.524;2024-02-14T10:32:54;100286.19;;;9.97;94.07
81354;BME280;70810;52.038;8.524;2024-02-14T10:35:53;100279.22;;;9.93;94.40
81354;BME280;70810;52.038;8.524;2024-02-14T10:38:39;100276.19;;;10.00;93.71
81354;BME280;70810;52.038;8.524;2024-02-14T10:41:06;100252.28;;;9.96;94.22
81354;BME280;70810;52.038;8.524;2024-02-14T10:43:34;100271.81;;;10.18;93.26
81354;BME280;70810;52.038;8.524;2024-02-14T10:46:15;100265.84;;;10.12;93.48
81354;BME280;70810;52.038;8.524;2024-02-14T10:49:34;100273.88;;;10.31;92.00
81354;BME280;70810;52.038;8.524;2024-02-14T10:52:05;100272.66;;;10.57;91.70
81354;BME280;70810;52.038;8.524;2024-02-14T10:54:37;100277.81;;;10.61;90.69
81354;BME280;70810;52.038;8.524;2024-02-14T10:57:06;100280.13;;;10.50;91.67
81354;BME280;70810;52.038;8.524;2024-02-14T10:59:38;100272.59;;;10.39;91.45
81354;BME280;70810;52.038;8.524;2024-02-14T11:02:07;100281.66;;;10.37;92.42
81354;BME280;70810;52.038;8.524;2024-02-14T11:04:34;100274.88;;;10.28;92.45
81354;BME280;70810;52.038;8.524;2024-02-14T11:07:02;100268.22;;;10.18;92.38
81354;BME280;70810;52.038;8.524;2024-02-14T11:09:37;100272.47;;;10.23;93.00
81354;BME280;70810;52.038;8.524;2024-02-14T11:12:07;100276.78;;;10.07;93.24
81354;BME280;70810;52.038;8.524;2024-02-14T11:14:36;100281.34;;;10.24;93.54
81354;BME280;70810;52.038;8.524;2024-02-14T11:17:16;100287.66;;;10.23;93.42
81354;BME280;70810;52.038;8.524;2024-02-14T11:20:16;100278.69;;;10.24;93.25
81354;BME280;70810;52.038;8.524;2024-02-14T11:23:31;100280.59;;;10.41;93.03
81354;BME280;70810;52.038;8.524;2024-02-14T11:26:03;100279.78;;;10.39;92.87
81354;BME280;70810;52.038;8.524;2024-02-14T11:28:30;100284.06;;;10.43;92.68
81354;BME280;70810;52.038;8.524;2024-02-14T11:31:00;100290.84;;;10.31;92.77
81354;BME280;70810;52.038;8.524;2024-02-14T11:33:29;100291.50;;;10.17;93.26
81354;BME280;70810;52.038;8.524;2024-02-14T11:35:56;100278.94;;;9.99;94.00
81354;BME280;70810;52.038;8.524;2024-02-14T11:38:24;100289.53;;;10.02;94.81
81354;BME280;70810;52.038;8.524;2024-02-14T11:40:53;100295.34;;;10.12;94.24
81354;BME280;70810;52.038;8.524;2024-02-14T11:43:33;100295.81;;;10.40;93.05
81354;BME280;70810;52.038;8.524;2024-02-14T11:46:02;100283.69;;;10.51;92.60
81354;BME280;70810;52.038;8.524;2024-02-14T11:48:31;100275.22;;;10.41;91.53
81354;BME280;70810;52.038;8.524;2024-02-14T11:51:00;100286.06;;;10.57;91.73
81354;BME280;70810;52.038;8.524;2024-02-14T11:53:27;100292.66;;;10.50;91.93
81354;BME280;70810;52.038;8.524;2024-02-14T11:55:55;100295.16;;;10.35;92.52
81354;BME280;70810;52.038;8.524;2024-02-14T11:58:23;100301.53;;;10.33;92.52
81354;BME280;70810;52.038;8.524;2024-02-14T12:00:51;100295.53;;;10.26;92.55
81354;BME280;70810;52.038;8.524;2024-02-14T12:03:19;100290.31;;;10.04;93.37
81354;BME280;70810;52.038;8.524;2024-02-14T12:05:49;100302.16;;;10.19;93.82
81354;BME280;70810;52.038;8.524;2024-02-14T12:08:17;100312.16;;;10.15;94.05
81354;BME280;70810;52.038;8.524;2024-02-14T12:10:45;100311.50;;;10.10;93.87
81354;BME280;70810;52.038;8.524;2024-02-14T12:13:17;100315.75;;;10.14;93.65
81354;BME280;70810;52.038;8.524;2024-02-14T12:15:46;100311.31;;;10.13;94.38
81354;BME280;70810;52.038;8.524;2024-02-14T12:18:14;100314.78;;;10.36;94.63
81354;BME280;70810;52.038;8.524;2024-02-14T12:20:41;100315.84;;;10.32;93.71
81354;BME280;70810;52.038;8.524;2024-02-14T12:23:14;100311.09;;;10.38;93.05
81354;BME280;70810;52.038;8.524;2024-02-14T12:25:43;100314.69;;;10.18;94.03
81354;BME280;70810;52.038;8.524;2024-02-14T12:28:13;100312.16;;;10.15;94.40
81354;BME280;70810;52.038;8.524;2024-02-14T12:30:46;100317.91;;;10.06;94.76
81354;BME280;70810;52.038;8.524;2024-02-14T12:33:19;100316.13;;;10.06;95.59
81354;BME280;70810;52.038;8.524;2024-02-14T12:35:47;100321.50;;;10.06;94.76
81354;BME280;70810;52.038;8.524;2024-02-14T12:38:16;100308.94;;;10.07;95.37
81354;BME280;70810;52.038;8.524;2024-02-14T12:40:43;100314.44;;;10.23;94.96
81354;BME280;70810;52.038;8.524;2024-02-14T12:43:11;100315.09;;;10.09;95.65
81354;BME280;70810;52.038;8.524;2024-02-14T12:45:39;100321.13;;;10.14;95.43
81354;BME280;70810;52.038;8.524;2024-02-14T12:48:11;100322.88;;;10.15;95.14
81354;BME280;70810;52.038;8.524;2024-02-14T12:50:41;100321.97;;;10.15;95.31
81354;BME280;70810;52.038;8.524;2024-02-14T12:53:14;100318.09;;;10.22;95.80
81354;BME280;70810;52.038;8.524;2024-02-14T12:55:41;100320.47;;;10.28;95.61
81354;BME280;70810;52.038;8.524;2024-02-14T12:58:12;100315.25;;;10.25;95.96
81354;BME280;70810;52.038;8.524;2024-02-14T13:00:40;100311.69;;;10.24;95.32
81354;BME280;70810;52.038;8.524;2024-02-14T13:06:35;100303.06;;;10.18;95.42
81354;BME280;70810;52.038;8.524;2024-02-14T13:09:17;100321.13;;;10.14;95.99
81354;BME280;70810;52.038;8.524;2024-02-14T13:11:46;100311.25;;;10.15;95.61
81354;BME280;70810;52.038;8.524;2024-02-14T13:14:13;100313.88;;;10.16;96.01
81354;BME280;70810;52.038;8.524;2024-02-14T13:16:40;100307.50;;;10.19;95.64
81354;BME280;70810;52.038;8.524;2024-02-14T13:19:08;100318.75;;;10.27;96.38
81354;BME280;70810;52.038;8.524;2024-02-14T13:21:38;100313.59;;;10.22;96.29
81354;BME280;70810;52.038;8.524;2024-02-14T13:24:13;100317.53;;;10.34;95.80
81354;BME280;70810;52.038;8.524;2024-02-14T13:26:40;100300.69;;;10.31;95.18
81354;BME280;70810;52.038;8.524;2024-02-14T13:29:07;100313.19;;;10.32;95.26
81354;BME280;70810;52.038;8.524;2024-02-14T13:31:36;100303.59;;;10.26;95.50
81354;BME280;70810;52.038;8.524;2024-02-14T13:34:09;100302.91;;;10.41;95.23
81354;BME280;70810;52.038;8.524;2024-02-14T13:36:43;100292.16;;;10.41;95.07